Aeroporto :
LOGIN :

Iscrizione | Disclaimer

   EN    FR    IT 

 










Sommario :    VFR   VFR Marginale   IFR   IFR Intensivo   IFR Molto Intensivo
Visibilità : 
Base nubi : 
>= 8 km
>= 3000ft
5 / 8 km
1000 / 3000 ft
1500m / 5 km
500 / 1000 ft
800 / 1500m
200 / 500 ft
< 800m
< 200 ft
Simboli :   Temporali  Nebbia  Neve Forte  Precipitazioni Forti  Vento > 20 kt
SIGMETs :   Varie  Temporali  Ghiacco  Turbolenza  Onda orograficha  Ceneri Vulcaniche






- Altitudine del aeroporto : 245 ft
- Codice IATA : BIQ


LFBZ - Biarritz

ULTIMO METAR :
  • 070100Z AUTO 07004KT 9999 FEW003 OVC064 12/12 Q1023

METARs OBSOLETI :
  • 070030Z AUTO 07003KT 9999 BKN002 BKN062 BKN074 12/12 Q1024
  • 070000Z AUTO 06003KT 9999 -DZ FEW003/// BKN062/// BKN076/// ///TCU 12/12 Q1024
  • 062330Z AUTO VRB02KT 9999 BKN004/// BKN054/// BKN070/// ///TCU 12/12 Q1024
  • 062300Z AUTO 00000KT 9999 BKN002/// BKN062/// BKN076/// ///TCU 12/12 Q1024
  • 062230Z AUTO 09003KT 7000 -RA BKN002/// BKN026/// BKN044/// ///TCU 12/12 Q1024
  • 062200Z AUTO 15002KT 7000 -RA BKN003/// BKN037/// BKN044/// ///TCU 12/12 Q1024

Previsioni scadute.



MetMap, La meteo Aeronautica in un colpo d'occhio ! - Copyright ORBIFLY Dicembre 2007 - Disclaimer

ORBIFLY MET'MAP TEAM :

Programmazione e sviluppo : Alexandra Zaïnal
Concezione : Baudouin d'Aumeries
Aiuto per la programmazione : Marc-Olivier Méhu
Supporto tecnico e logistico : Manuel Goepfert
Aiuto per la traduzione : Arnaldo La Scala

Contatto : metmap@orbifly.com




FONTI E CREDITI :

   NOAA